Cottonville, North Carolina
Current Conditions -  °F | °C
As of 6:55 PM on Wednesday 22 Oct 2014 (Local Time) from KVUJ Reporting Station
Clear Clear  
Wind Chill: 57°   Ceiling: Unl
Heat Index: 57°   Visibility: 10mi
Dew Point: 40°   Wind: 8mph
Humidity: 54%   Direction: 320°NW
Pressure: 30.08"   Gusts: NA
Location:  35.2152°N, 80.1663°W
Report Text: KVUJ 222255Z AUTO 32007KT 10SM CLR 14/05 A3008 RMK AO2 T01400047
Loading
Personal Weather Stations






























Interactive Weather Map
Tropical Storm Tracking
New forecast layout! Learn more

10-Day Weather Forecast

Advertisements
Track Severe Weather on mobile